createdAt,value
2023-05-09T00:00:56.689Z,5.4306
2023-05-09T00:01:59.197Z,5.4541
2023-05-09T00:03:01.848Z,5.8831
2023-05-09T00:04:04.355Z,5.5077
2023-05-09T00:05:06.976Z,5.5166
2023-05-09T00:06:09.528Z,5.6769
2023-05-09T00:07:12.237Z,5.6714
2023-05-09T00:08:14.727Z,5.2341
2023-05-09T00:09:17.349Z,5.3594
2023-05-09T00:10:19.919Z,5.5360
2023-05-09T00:11:22.534Z,5.1270
2023-05-09T00:12:25.105Z,5.0825
2023-05-09T00:13:27.749Z,5.3245
2023-05-09T00:14:30.298Z,5.1304
2023-05-09T00:15:32.924Z,5.0607
2023-05-09T00:16:35.887Z,5.3413
2023-05-09T00:17:38.143Z,5.4009
2023-05-09T00:18:40.701Z,5.1571
2023-05-09T00:19:43.321Z,4.7441
2023-05-09T00:20:45.898Z,5.3013
2023-05-09T00:21:48.470Z,5.2640
2023-05-09T00:22:51.193Z,5.3560
2023-05-09T00:23:53.668Z,4.8286
2023-05-09T00:24:56.289Z,5.3622
2023-05-09T00:25:58.862Z,5.1694
2023-05-09T00:27:01.483Z,5.3640
2023-05-09T00:28:04.049Z,4.9995
2023-05-09T00:30:40.861Z,4.8427
2023-05-09T00:31:43.481Z,4.9826
2023-05-09T00:32:46.102Z,4.8327
2023-05-09T00:33:48.625Z,5.7193
2023-05-09T00:34:51.248Z,5.2852
2023-05-09T00:35:53.824Z,5.0341
2023-05-09T00:36:56.466Z,5.1923
2023-05-09T00:37:59.134Z,5.3365
2023-05-09T00:39:01.679Z,5.2690
2023-05-09T00:40:04.232Z,5.0008
2023-05-09T00:41:06.849Z,5.2268
2023-05-09T00:42:09.421Z,5.1625
2023-05-09T00:43:12.045Z,5.2401
2023-05-09T00:44:14.652Z,5.3944
2023-05-09T00:46:27.388Z,4.9867
2023-05-09T00:47:29.988Z,5.5554
2023-05-09T00:48:32.557Z,5.3357
2023-05-09T00:49:35.138Z,4.8914
2023-05-09T00:50:37.778Z,4.9493
2023-05-09T00:51:40.359Z,5.0518
2023-05-09T00:52:42.973Z,5.1009
2023-05-09T00:53:45.721Z,5.2713
2023-05-09T00:54:48.182Z,5.0115
2023-05-09T00:55:50.755Z,4.8824
2023-05-09T00:56:53.384Z,4.7683
2023-05-09T00:57:55.966Z,4.8937
2023-05-09T00:58:58.598Z,5.0775
2023-05-09T01:00:01.170Z,4.8658
2023-05-09T01:01:03.857Z,4.6932
2023-05-09T01:02:06.361Z,4.6317
2023-05-09T01:03:09.124Z,4.2596
2023-05-09T01:04:11.576Z,4.1500
2023-05-09T01:05:14.545Z,4.0000
2023-05-09T01:06:17.269Z,3.8232
2023-05-09T01:07:19.394Z,3.8376
2023-05-09T01:08:21.975Z,3.9534
2023-05-09T01:09:24.683Z,4.1514
2023-05-09T01:10:27.175Z,4.0252
2023-05-09T01:11:29.785Z,3.9126
2023-05-09T01:12:32.366Z,4.0920
2023-05-09T01:13:35.002Z,4.2817
2023-05-09T01:14:37.562Z,4.1637
2023-05-09T01:15:40.219Z,4.2702
2023-05-09T01:16:42.789Z,4.3937
2023-05-09T01:17:45.401Z,4.4326
2023-05-09T01:18:47.956Z,4.2407
2023-05-09T01:19:50.583Z,4.4363
2023-05-09T01:20:53.157Z,4.6939
2023-05-09T01:21:55.802Z,4.7553
2023-05-09T01:22:58.353Z,4.3870
2023-05-09T01:24:01.007Z,4.2785
2023-05-09T01:25:03.663Z,4.3899
2023-05-09T01:26:06.261Z,4.3810
2023-05-09T01:27:08.779Z,4.5717
2023-05-09T01:28:11.382Z,4.4555
2023-05-09T01:29:13.975Z,4.0609
2023-05-09T01:30:16.586Z,4.2518
2023-05-09T01:32:29.337Z,6.4958
2023-05-09T01:33:31.916Z,7.0905
2023-05-09T01:34:34.496Z,6.4211
2023-05-09T01:35:37.126Z,5.4735
2023-05-09T01:36:39.695Z,5.5418
2023-05-09T01:37:42.340Z,5.1691
2023-05-09T01:38:44.906Z,5.0952
2023-05-09T01:39:47.543Z,5.9229
2023-05-09T01:40:50.299Z,5.7387
2023-05-09T01:41:52.720Z,5.3907
2023-05-09T01:42:55.308Z,5.8378
2023-05-09T01:43:57.942Z,6.0081
2023-05-09T01:45:00.544Z,5.5586
2023-05-09T01:46:03.120Z,5.6142
2023-05-09T01:47:05.989Z,5.6144
2023-05-09T01:48:08.438Z,6.0091
2023-05-09T01:49:10.903Z,5.4922
2023-05-09T01:50:13.552Z,6.1406
2023-05-09T01:51:16.089Z,5.8762
2023-05-09T01:52:18.734Z,5.4764
2023-05-09T01:53:21.288Z,5.9643
2023-05-09T01:54:23.913Z,6.1922
2023-05-09T01:55:26.484Z,6.0179
2023-05-09T01:56:29.211Z,5.9558
2023-05-09T01:57:31.680Z,5.5568
2023-05-09T01:58:34.306Z,6.2242
2023-05-09T01:59:36.865Z,5.9748
2023-05-09T02:02:04.077Z,5.5616
2023-05-09T02:03:06.667Z,5.7754
2023-05-09T02:04:09.214Z,6.1008
2023-05-09T02:05:12.098Z,5.9196
2023-05-09T02:06:14.416Z,5.9777
2023-05-09T02:07:17.035Z,6.1081
2023-05-09T02:08:19.612Z,6.2273
2023-05-09T02:09:22.778Z,6.4441
2023-05-09T02:10:24.817Z,6.0971
2023-05-09T02:11:27.435Z,5.8535
2023-05-09T02:12:30.116Z,5.8299
2023-05-09T02:13:32.658Z,5.9755
2023-05-09T02:14:35.199Z,6.2698
2023-05-09T02:15:37.820Z,6.4890
2023-05-09T02:16:40.463Z,5.7379
2023-05-09T02:17:43.031Z,5.7128
2023-05-09T02:18:45.627Z,6.0646
2023-05-09T02:20:58.937Z,5.1165
2023-05-09T02:22:00.925Z,5.7152
2023-05-09T02:23:03.558Z,5.3252
2023-05-09T02:24:06.121Z,5.5085
2023-05-09T02:25:08.952Z,5.1548
2023-05-09T02:26:11.317Z,5.4678
2023-05-09T02:27:13.951Z,5.3715
2023-05-09T02:28:16.642Z,5.4620
2023-05-09T02:29:19.156Z,5.5614
2023-05-09T02:30:21.755Z,5.6445
2023-05-09T02:31:24.469Z,5.4857
2023-05-09T02:32:26.950Z,5.6168
2023-05-09T02:33:29.567Z,5.7225
2023-05-09T02:34:32.136Z,5.8729
2023-05-09T02:35:34.747Z,5.8843
2023-05-09T02:36:37.326Z,5.1986
2023-05-09T02:37:39.964Z,5.9676
2023-05-09T02:38:42.545Z,6.1251
2023-05-09T02:39:45.155Z,6.2313
2023-05-09T02:40:47.733Z,5.5087
2023-05-09T02:41:50.524Z,5.7545
2023-05-09T02:42:52.927Z,6.1757
2023-05-09T02:43:55.653Z,5.9318
2023-05-09T02:44:58.148Z,5.6661
2023-05-09T02:46:00.787Z,5.7280
2023-05-09T02:47:03.341Z,5.4339
2023-05-09T02:48:08.353Z,5.8567
2023-05-09T02:49:09.131Z,5.7986
2023-05-09T02:50:11.169Z,5.9050
2023-05-09T02:51:13.839Z,6.1966
2023-05-09T02:52:16.372Z,5.8988
2023-05-09T02:53:18.940Z,5.9108
2023-05-09T02:54:21.558Z,5.3793
2023-05-09T02:55:24.139Z,5.9884
2023-05-09T02:56:26.762Z,6.1160
2023-05-09T02:57:29.332Z,6.0666
2023-05-09T02:58:31.956Z,5.9801
2023-05-09T02:59:34.629Z,6.3389
2023-05-09T03:00:37.155Z,6.2251
2023-05-09T03:01:39.773Z,5.7732
2023-05-09T03:02:42.403Z,6.3243
2023-05-09T03:03:44.983Z,6.1269
2023-05-09T03:04:47.544Z,6.0720
2023-05-09T03:05:50.112Z,6.2731
2023-05-09T03:06:52.736Z,6.4579
2023-05-09T03:07:55.311Z,6.0050
2023-05-09T03:08:57.939Z,5.8799
2023-05-09T03:10:00.518Z,6.1355
2023-05-09T03:11:03.146Z,5.9465
2023-05-09T03:12:05.764Z,6.1628
2023-05-09T03:13:08.417Z,5.6509
2023-05-09T03:14:11.036Z,5.7841
2023-05-09T03:15:13.862Z,5.8260
2023-05-09T03:16:16.141Z,5.5957
2023-05-09T03:17:18.751Z,5.5808
2023-05-09T03:18:21.302Z,5.6422
2023-05-09T03:19:23.914Z,5.3906
2023-05-09T03:20:26.499Z,5.4764
2023-05-09T03:21:29.105Z,5.4731
2023-05-09T03:22:31.697Z,5.7458
2023-05-09T03:23:34.310Z,5.5263
2023-05-09T03:24:36.866Z,6.4335
2023-05-09T03:25:39.495Z,6.4789
2023-05-09T03:26:42.063Z,5.8747
2023-05-09T03:27:44.685Z,6.0883
2023-05-09T03:28:47.255Z,5.8266
2023-05-09T03:29:49.914Z,5.7759
2023-05-09T03:30:52.567Z,5.8543
2023-05-09T03:31:55.216Z,5.6951
2023-05-09T03:32:57.681Z,5.7555
2023-05-09T03:34:00.278Z,5.4459
2023-05-09T03:35:02.846Z,5.6479
2023-05-09T03:36:05.482Z,5.4858
2023-05-09T03:37:08.031Z,5.3133
2023-05-09T03:38:10.936Z,5.3636
2023-05-09T03:39:13.250Z,5.4367
2023-05-09T03:40:15.855Z,5.2791
2023-05-09T03:41:18.432Z,5.5181
2023-05-09T03:42:21.054Z,4.9753
2023-05-09T03:43:23.630Z,4.8262
2023-05-09T03:44:26.256Z,4.7767
2023-05-09T03:45:28.841Z,4.9127
2023-05-09T03:46:31.541Z,4.8370
2023-05-09T03:47:34.120Z,4.9370
2023-05-09T03:48:36.631Z,4.9042
2023-05-09T03:49:39.202Z,4.6307
2023-05-09T03:50:41.852Z,4.8899
2023-05-09T03:51:44.394Z,4.7022
2023-05-09T03:52:47.027Z,4.7028
2023-05-09T03:53:49.742Z,5.1230
2023-05-09T03:54:52.224Z,4.7860
2023-05-09T03:55:54.800Z,4.6153
2023-05-09T03:56:57.423Z,4.1627
2023-05-09T03:57:59.991Z,4.2190
2023-05-09T03:59:02.610Z,4.4739
2023-05-09T04:00:05.196Z,4.2465
2023-05-09T04:01:07.809Z,4.2455
2023-05-09T04:02:10.501Z,4.1551
2023-05-09T04:03:13.065Z,4.1582
2023-05-09T04:04:15.598Z,3.8838
2023-05-09T04:05:18.249Z,3.7945
2023-05-09T04:06:20.784Z,3.8250
2023-05-09T04:07:23.422Z,3.6558
2023-05-09T04:08:25.996Z,3.7877
2023-05-09T04:09:28.611Z,4.0042
2023-05-09T04:10:31.185Z,3.8334
2023-05-09T04:11:33.803Z,3.6465
2023-05-09T04:12:36.407Z,3.6486
2023-05-09T04:13:39.011Z,3.6422
2023-05-09T04:14:41.597Z,3.5618
2023-05-09T04:15:44.206Z,3.2818
2023-05-09T04:16:46.795Z,3.4827
2023-05-09T04:17:49.577Z,3.4789
2023-05-09T04:18:51.983Z,3.6815
2023-05-09T04:19:54.618Z,3.5825
2023-05-09T04:20:57.189Z,3.3188
2023-05-09T04:21:59.815Z,3.5651
2023-05-09T04:23:02.383Z,3.5633
2023-05-09T04:26:03.284Z,3.2690
2023-05-09T04:27:05.904Z,3.4565
2023-05-09T04:28:08.480Z,3.8717
2023-05-09T04:29:11.103Z,3.5982
2023-05-09T04:30:13.678Z,3.2153
2023-05-09T04:31:16.436Z,3.2804
2023-05-09T04:32:18.926Z,3.3042
2023-05-09T04:33:21.609Z,3.3789
2023-05-09T04:34:24.091Z,3.4293
2023-05-09T04:35:26.722Z,3.3355
2023-05-09T04:36:29.370Z,3.3030
2023-05-09T04:37:31.906Z,3.4505
2023-05-09T04:38:34.507Z,3.4019
2023-05-09T04:39:37.099Z,3.1688
2023-05-09T04:40:39.709Z,3.4489
2023-05-09T04:41:42.321Z,3.0918
2023-05-09T04:42:44.913Z,3.2402
2023-05-09T04:43:47.775Z,3.4985
2023-05-09T04:44:50.074Z,3.3798
2023-05-09T04:45:52.745Z,3.4258
2023-05-09T04:46:55.273Z,3.0523
2023-05-09T04:47:57.949Z,3.1555
2023-05-09T04:49:00.573Z,3.1135
2023-05-09T04:50:03.092Z,3.3820
2023-05-09T04:51:05.684Z,3.0382
2023-05-09T04:52:08.289Z,3.0761
2023-05-09T04:53:10.864Z,3.3054
2023-05-09T04:54:13.498Z,3.0431
2023-05-09T04:55:16.235Z,3.4046
2023-05-09T04:56:18.680Z,3.4834
2023-05-09T04:57:21.263Z,3.2406
2023-05-09T04:58:23.893Z,3.1408
2023-05-09T04:59:26.463Z,3.4675
2023-05-09T05:00:29.095Z,3.1085
2023-05-09T05:01:31.687Z,3.2994
2023-05-09T05:02:34.327Z,3.1585
2023-05-09T05:03:36.841Z,2.9420
2023-05-09T05:04:39.597Z,3.1703
2023-05-09T05:05:42.062Z,3.1516
2023-05-09T05:06:44.671Z,3.0424
2023-05-09T05:07:47.242Z,3.3012
2023-05-09T05:08:49.843Z,2.9666
2023-05-09T05:09:52.423Z,3.2080
2023-05-09T05:10:55.043Z,3.2234
2023-05-09T05:12:01.845Z,2.8902
2023-05-09T05:13:00.268Z,3.2576
2023-05-09T05:14:02.833Z,3.0094
2023-05-09T05:15:05.450Z,3.4150
2023-05-09T05:16:08.039Z,3.1949
2023-05-09T05:17:10.643Z,2.9798
2023-05-09T05:18:13.219Z,3.2199
2023-05-09T05:19:15.860Z,3.1896
2023-05-09T05:20:18.552Z,2.8800
2023-05-09T05:21:21.046Z,2.7565
2023-05-09T05:22:23.651Z,3.1817
2023-05-09T05:23:26.254Z,2.8359
2023-05-09T05:24:28.828Z,3.3079
2023-05-09T05:25:31.443Z,3.3181
2023-05-09T05:26:34.030Z,3.2699
2023-05-09T05:27:36.674Z,3.3242
2023-05-09T05:28:39.221Z,3.1606
2023-05-09T05:29:41.848Z,3.3634
2023-05-09T05:30:44.418Z,3.1036
2023-05-09T05:31:47.137Z,3.2959
2023-05-09T05:32:49.676Z,3.4974
2023-05-09T05:33:52.245Z,3.7475
2023-05-09T05:36:14.572Z,3.3327
2023-05-09T05:37:17.189Z,3.5150
2023-05-09T05:38:19.817Z,3.2158
2023-05-09T05:39:22.397Z,3.5793
2023-05-09T05:40:24.969Z,3.6498
2023-05-09T05:41:27.608Z,3.5856
2023-05-09T05:42:30.176Z,3.5823
2023-05-09T05:43:32.805Z,3.3850
2023-05-09T05:44:35.383Z,3.4590
2023-05-09T05:45:38.057Z,3.4601
2023-05-09T05:46:40.571Z,3.5043
2023-05-09T05:47:43.240Z,3.4635
2023-05-09T05:48:45.773Z,3.5030
2023-05-09T05:49:48.395Z,3.2948
2023-05-09T05:50:50.966Z,3.5334
2023-05-09T05:51:53.680Z,3.4317
2023-05-09T05:52:56.176Z,3.5939
2023-05-09T05:53:58.938Z,3.3860
2023-05-09T05:55:01.366Z,3.5150
2023-05-09T05:56:03.986Z,3.4917
2023-05-09T05:57:06.568Z,3.6476
2023-05-09T05:58:09.212Z,3.4134
2023-05-09T05:59:13.428Z,3.4250
2023-05-09T06:00:14.402Z,3.5096
2023-05-09T06:01:16.983Z,3.3848
2023-05-09T06:02:19.618Z,3.2948
2023-05-09T06:03:22.249Z,3.4011
2023-05-09T06:04:24.804Z,3.6208
2023-05-09T06:05:27.368Z,3.8072
2023-05-09T06:06:29.991Z,3.5565
2023-05-09T06:07:32.673Z,3.7822
2023-05-09T06:08:35.195Z,4.2092
2023-05-09T06:09:37.764Z,3.8893
2023-05-09T06:10:40.390Z,3.6562
2023-05-09T06:11:42.968Z,3.8315
2023-05-09T06:12:45.651Z,3.7026
2023-05-09T06:13:48.176Z,3.8490
2023-05-09T06:14:50.799Z,3.8430
2023-05-09T06:15:53.364Z,3.7534
2023-05-09T06:16:56.009Z,3.7939
2023-05-09T06:17:58.700Z,3.8270
2023-05-09T06:19:01.185Z,4.1055
2023-05-09T06:20:03.901Z,4.0520
2023-05-09T06:21:06.390Z,4.0276
2023-05-09T06:22:08.954Z,3.8186
2023-05-09T06:23:11.664Z,3.9431
2023-05-09T06:24:23.522Z,4.0693
2023-05-09T06:25:16.977Z,4.0870
2023-05-09T06:26:19.341Z,3.7463
2023-05-09T06:27:21.969Z,4.0025
2023-05-09T06:28:24.544Z,3.8367
2023-05-09T06:29:27.164Z,4.2662
2023-05-09T06:30:29.766Z,4.2241
2023-05-09T06:31:32.361Z,4.3295
2023-05-09T06:32:35.012Z,4.6478
2023-05-09T06:33:37.543Z,4.3408
2023-05-09T06:34:40.099Z,4.4009
2023-05-09T06:35:42.727Z,4.7884
2023-05-09T06:36:45.291Z,4.3612
2023-05-09T06:37:48.760Z,4.3092
2023-05-09T06:38:50.590Z,4.0251
2023-05-09T06:39:53.119Z,4.4576
2023-05-09T06:40:55.679Z,4.2241
2023-05-09T06:41:58.305Z,4.5871
2023-05-09T06:43:00.873Z,4.5221
2023-05-09T06:44:03.493Z,4.9420
2023-05-09T06:45:06.114Z,4.4645
2023-05-09T06:46:08.762Z,4.2321
2023-05-09T06:47:11.262Z,4.5616
2023-05-09T06:48:14.497Z,4.2719
2023-05-09T06:49:16.439Z,4.6772
2023-05-09T06:50:19.060Z,4.5979
2023-05-09T06:51:21.640Z,4.3936
2023-05-09T06:52:24.259Z,4.2324
2023-05-09T06:53:26.822Z,4.3581
2023-05-09T06:54:29.518Z,4.5446
2023-05-09T06:55:32.017Z,4.5440
2023-05-09T06:56:34.630Z,4.6870
2023-05-09T06:57:37.185Z,4.4612
2023-05-09T06:58:39.812Z,4.6337
2023-05-09T06:59:42.388Z,4.5840
2023-05-09T07:00:44.996Z,4.7885
2023-05-09T07:01:47.604Z,4.7784
2023-05-09T07:02:50.247Z,4.6222
2023-05-09T07:03:52.738Z,4.5797
2023-05-09T07:04:55.401Z,5.0605
2023-05-09T07:05:57.927Z,4.9944
2023-05-09T07:07:00.552Z,4.8631
2023-05-09T07:08:03.122Z,4.8109
2023-05-09T07:09:05.720Z,4.5874
2023-05-09T07:10:11.799Z,4.8952
2023-05-09T07:11:10.901Z,4.3699
2023-05-09T07:12:13.481Z,4.5574
2023-05-09T07:13:16.108Z,4.6893
2023-05-09T07:14:18.660Z,4.1460
2023-05-09T07:15:36.871Z,4.5497
2023-05-09T07:16:23.893Z,4.1767
2023-05-09T07:17:26.526Z,4.4096
2023-05-09T07:18:29.020Z,4.4545
2023-05-09T07:19:31.636Z,4.3351
2023-05-09T07:20:34.217Z,4.2323
2023-05-09T07:21:36.833Z,4.3440
2023-05-09T07:22:39.415Z,5.0929
2023-05-09T07:23:42.008Z,4.8290
2023-05-09T07:24:44.632Z,4.7920
2023-05-09T07:25:47.291Z,4.1817
2023-05-09T07:26:49.892Z,4.2642
2023-05-09T07:27:52.372Z,4.6571
2023-05-09T07:28:54.936Z,4.8849
2023-05-09T07:29:57.567Z,4.4669
2023-05-09T07:31:00.157Z,4.7557
2023-05-09T07:32:02.792Z,4.5670
2023-05-09T07:33:05.316Z,4.5252
2023-05-09T07:34:07.978Z,4.6320
2023-05-09T07:35:10.493Z,4.7433
2023-05-09T07:36:13.091Z,4.8122
2023-05-09T07:37:16.498Z,4.5869
2023-05-09T07:38:18.287Z,4.7315
2023-05-09T07:39:20.855Z,4.9541
2023-05-09T07:40:23.490Z,4.7081
2023-05-09T07:41:26.110Z,4.5637
2023-05-09T07:42:28.618Z,4.8041
2023-05-09T07:43:31.185Z,4.7578
2023-05-09T07:44:33.812Z,4.4630
2023-05-09T07:45:38.144Z,5.2295
2023-05-09T07:46:38.974Z,5.0455
2023-05-09T07:47:41.576Z,4.6650
2023-05-09T07:48:44.158Z,4.6493
2023-05-09T07:49:46.780Z,5.0203
2023-05-09T07:50:49.361Z,4.9183
2023-05-09T07:51:51.893Z,5.1893
2023-05-09T07:53:59.681Z,4.9528
2023-05-09T07:55:02.313Z,5.3845
2023-05-09T07:56:05.250Z,5.7011
2023-05-09T07:57:07.572Z,5.5399
2023-05-09T07:58:10.054Z,5.3428
2023-05-09T07:59:12.696Z,5.4512
2023-05-09T08:00:15.316Z,5.6354
2023-05-09T08:01:17.873Z,5.3023
2023-05-09T08:02:20.469Z,4.7934
2023-05-09T08:03:23.141Z,5.3472
2023-05-09T08:04:25.624Z,5.5159
2023-05-09T08:05:28.233Z,6.1167
2023-05-09T08:06:30.794Z,5.8885
2023-05-09T08:07:33.400Z,6.0194
2023-05-09T08:08:38.285Z,5.7950
2023-05-09T08:09:38.604Z,5.5018
2023-05-09T08:10:41.173Z,5.7968
2023-05-09T08:11:44.064Z,6.1883
2023-05-09T08:12:46.470Z,6.1632
2023-05-09T08:13:48.966Z,5.9861
2023-05-09T08:14:51.558Z,5.8513
2023-05-09T08:15:54.166Z,6.1673
2023-05-09T08:16:56.711Z,5.9874
2023-05-09T08:17:59.377Z,6.1754
2023-05-09T08:19:02.164Z,6.2674
2023-05-09T08:20:04.515Z,5.8786
2023-05-09T08:21:07.100Z,6.5142
2023-05-09T08:22:09.697Z,6.1470
2023-05-09T08:23:12.264Z,5.8384
2023-05-09T08:24:14.882Z,6.1785
2023-05-09T08:25:17.561Z,6.4154
2023-05-09T08:27:59.044Z,5.7380
2023-05-09T08:29:01.560Z,5.9493
2023-05-09T08:30:04.136Z,6.1106
2023-05-09T08:31:06.795Z,6.0433
2023-05-09T08:32:09.838Z,5.8428
2023-05-09T08:33:11.956Z,6.0113
2023-05-09T08:34:14.507Z,6.0275
2023-05-09T08:35:17.431Z,5.7348
2023-05-09T08:36:19.863Z,5.8468
2023-05-09T08:37:22.289Z,6.2939
2023-05-09T08:38:24.898Z,5.9595
2023-05-09T08:39:27.473Z,6.1144
2023-05-09T08:40:30.045Z,6.1998
2023-05-09T08:42:42.652Z,6.1828
2023-05-09T08:43:45.349Z,6.7790
2023-05-09T08:44:47.826Z,6.6147
2023-05-09T08:45:50.469Z,7.0575
2023-05-09T08:46:53.082Z,6.4301
2023-05-09T08:47:55.651Z,6.7601
2023-05-09T08:48:58.210Z,6.6359
2023-05-09T08:50:00.816Z,6.6384
2023-05-09T08:51:03.385Z,6.8536
2023-05-09T08:52:06.007Z,7.1428
2023-05-09T08:53:08.617Z,7.2746
2023-05-09T08:54:11.183Z,6.9361
2023-05-09T08:55:13.778Z,7.1802
2023-05-09T08:56:16.473Z,7.5370
2023-05-09T08:57:18.934Z,7.3146
2023-05-09T09:00:17.232Z,7.0871
2023-05-09T09:01:17.507Z,7.4115
2023-05-09T09:02:20.118Z,7.3733
2023-05-09T09:03:22.680Z,7.4302
2023-05-09T09:04:25.313Z,7.5746
2023-05-09T09:05:40.730Z,7.1534
2023-05-09T09:06:30.482Z,6.7129
2023-05-09T09:07:33.047Z,7.3997
2023-05-09T09:08:35.672Z,7.7749
2023-05-09T09:09:38.256Z,6.9393
2023-05-09T09:10:40.845Z,6.8241
2023-05-09T09:11:43.415Z,6.2999
2023-05-09T09:12:47.107Z,6.7407
2023-05-09T09:13:48.584Z,6.5021
2023-05-09T09:14:51.194Z,6.7427
2023-05-09T09:15:53.879Z,6.7077
2023-05-09T09:16:56.420Z,7.3740
2023-05-09T09:17:58.979Z,7.0030
2023-05-09T09:19:01.579Z,6.9212
2023-05-09T09:20:04.120Z,6.7495
2023-05-09T09:21:06.729Z,6.4570
2023-05-09T09:22:09.308Z,6.1619
2023-05-09T09:23:11.933Z,6.5423
2023-05-09T09:24:14.478Z,6.1407
2023-05-09T09:25:18.305Z,6.0588
2023-05-09T09:26:19.653Z,6.3329
2023-05-09T09:27:22.407Z,6.3030
2023-05-09T09:28:24.834Z,6.5380
2023-05-09T09:29:27.749Z,6.1679
2023-05-09T09:30:30.004Z,5.8810
2023-05-09T09:31:32.650Z,6.3305
2023-05-09T09:32:35.252Z,7.1318
2023-05-09T09:33:37.797Z,6.3665
2023-05-09T09:34:40.373Z,6.4571
2023-05-09T09:35:42.962Z,6.5287
2023-05-09T09:36:45.523Z,6.3014
2023-05-09T09:37:48.146Z,6.6781
2023-05-09T09:38:50.839Z,6.2900
2023-05-09T09:39:53.310Z,6.3606
2023-05-09T09:40:55.927Z,6.6361
2023-05-09T09:41:58.490Z,6.5083
2023-05-09T09:43:01.045Z,6.0145
2023-05-09T09:44:03.663Z,6.2893
2023-05-09T09:45:06.325Z,6.6850
2023-05-09T09:46:08.894Z,6.6442
2023-05-09T09:48:21.471Z,6.0024
2023-05-09T09:49:23.979Z,6.4086
2023-05-09T09:50:26.574Z,5.5220
2023-05-09T09:51:29.127Z,5.4788
2023-05-09T09:52:31.736Z,5.4027
2023-05-09T09:53:34.299Z,5.5727
2023-05-09T09:54:36.925Z,6.0154
2023-05-09T09:55:39.506Z,6.3840
2023-05-09T09:56:42.305Z,6.3068
2023-05-09T09:57:44.673Z,6.7935
2023-05-09T09:58:47.336Z,5.7829
2023-05-09T09:59:49.863Z,5.8658
2023-05-09T10:00:52.465Z,5.6263
2023-05-09T10:01:55.020Z,5.5221
2023-05-09T10:02:57.785Z,5.8435
2023-05-09T10:04:00.322Z,5.7015
2023-05-09T10:05:02.818Z,5.3196
2023-05-09T10:06:05.378Z,5.6672
2023-05-09T10:07:07.984Z,6.0255
2023-05-09T10:08:10.549Z,6.8671
2023-05-09T10:09:13.177Z,6.2219
2023-05-09T10:10:16.089Z,5.8878
2023-05-09T10:11:18.356Z,6.1805
2023-05-09T10:12:20.912Z,5.9604
2023-05-09T10:13:23.848Z,5.4167
2023-05-09T10:14:26.108Z,5.1634
2023-05-09T10:15:30.055Z,5.4353
2023-05-09T10:16:42.721Z,4.4229
2023-05-09T10:17:33.987Z,4.7856
2023-05-09T10:18:36.536Z,4.8715
2023-05-09T10:19:39.618Z,4.6044
2023-05-09T10:20:41.646Z,4.4253
2023-05-09T10:21:42.246Z,4.7019
2023-05-09T10:22:46.837Z,4.4442
2023-05-09T10:23:50.515Z,4.9143
2023-05-09T10:24:55.629Z,5.0014
2023-05-09T10:25:54.627Z,5.5226
2023-05-09T10:26:57.255Z,5.0852
2023-05-09T10:27:59.939Z,5.4278
2023-05-09T10:29:02.364Z,4.7114
2023-05-09T10:30:04.953Z,4.5550
2023-05-09T10:31:08.964Z,4.7441
2023-05-09T10:32:10.094Z,5.3408
2023-05-09T10:33:12.775Z,4.8290
2023-05-09T10:34:15.274Z,4.8997
2023-05-09T10:35:17.984Z,5.2318
2023-05-09T10:36:20.522Z,5.0662
2023-05-09T10:37:23.082Z,5.2386
2023-05-09T10:38:25.672Z,5.4529
2023-05-09T10:39:28.241Z,5.0418
2023-05-09T10:40:30.801Z,4.9292
2023-05-09T10:41:33.408Z,4.2649
2023-05-09T10:42:35.982Z,4.2959
2023-05-09T10:45:17.638Z,4.2888
2023-05-09T10:46:19.980Z,4.3179
2023-05-09T10:47:22.574Z,4.3373
2023-05-09T10:48:25.136Z,3.7064
2023-05-09T10:49:28.031Z,3.5568
2023-05-09T10:50:30.394Z,3.8352
2023-05-09T10:51:32.923Z,3.5824
2023-05-09T10:52:35.484Z,3.5750
2023-05-09T10:53:38.084Z,3.8521
2023-05-09T10:54:40.644Z,3.7146
2023-05-09T10:57:02.826Z,3.5764
2023-05-09T10:58:05.376Z,4.5403
2023-05-09T10:59:07.995Z,4.4239
2023-05-09T11:00:10.560Z,4.3677
2023-05-09T11:01:13.204Z,4.3399
2023-05-09T11:02:15.728Z,4.2010
2023-05-09T11:03:18.408Z,4.5917
2023-05-09T11:04:20.922Z,4.9411
2023-05-09T11:05:23.531Z,4.9401
2023-05-09T11:06:26.189Z,4.2592
2023-05-09T11:07:28.702Z,4.8341
2023-05-09T11:08:31.306Z,5.3016
2023-05-09T11:09:34.133Z,4.6589
2023-05-09T11:10:36.441Z,4.7227
2023-05-09T11:11:39.040Z,5.1813
2023-05-09T11:12:41.814Z,5.0291
2023-05-09T11:13:44.209Z,4.3456
2023-05-09T11:14:46.766Z,4.0838
2023-05-09T11:15:49.385Z,4.0602
2023-05-09T11:16:51.961Z,4.2990
2023-05-09T11:17:54.626Z,4.1623
2023-05-09T11:18:57.119Z,3.7517
2023-05-09T11:19:59.733Z,3.6204
2023-05-09T11:21:02.285Z,3.8264
2023-05-09T11:22:05.006Z,3.3975
2023-05-09T11:24:51.071Z,3.2173
2023-05-09T11:25:53.723Z,3.6810
2023-05-09T11:26:56.456Z,3.3839
2023-05-09T11:27:58.854Z,3.5941
2023-05-09T11:29:01.412Z,3.8081
2023-05-09T11:30:04.041Z,3.6512
2023-05-09T11:31:06.624Z,3.2739
2023-05-09T11:32:09.248Z,3.2181
2023-05-09T11:33:11.781Z,2.9388
2023-05-09T11:34:14.361Z,2.9542
2023-05-09T11:35:17.232Z,3.0224
2023-05-09T11:36:19.581Z,3.0203
2023-05-09T11:37:22.193Z,2.8862
2023-05-09T11:38:24.712Z,2.9391
2023-05-09T11:39:27.272Z,2.5225
2023-05-09T11:40:29.890Z,2.8205
2023-05-09T11:41:32.471Z,2.7763
2023-05-09T11:42:35.049Z,2.6369
2023-05-09T11:43:37.603Z,2.4191
2023-05-09T11:44:40.218Z,2.8436
2023-05-09T11:45:42.771Z,2.8834
2023-05-09T11:46:45.374Z,2.9386
2023-05-09T11:47:47.979Z,2.8302
2023-05-09T11:48:50.545Z,2.6931
2023-05-09T11:49:53.096Z,2.5129
2023-05-09T11:50:55.714Z,2.8472
2023-05-09T11:51:58.265Z,2.6343
2023-05-09T11:53:01.125Z,2.7408
2023-05-09T11:54:03.435Z,3.0528
2023-05-09T11:55:06.031Z,2.4461
2023-05-09T11:56:08.603Z,2.5182
2023-05-09T11:57:11.210Z,2.6768
2023-05-09T11:58:13.766Z,2.6543
2023-05-09T11:59:16.500Z,2.6217
2023-05-09T12:00:18.926Z,2.5062
2023-05-09T12:01:21.555Z,2.5676
2023-05-09T12:02:24.196Z,2.7672
2023-05-09T12:03:27.159Z,2.7343
2023-05-09T12:06:22.547Z,2.9007
2023-05-09T12:07:25.118Z,2.9379
2023-05-09T12:08:27.809Z,2.9874
2023-05-09T12:09:30.303Z,3.0622
2023-05-09T12:10:33.275Z,3.1687
2023-05-09T12:11:35.480Z,3.0949
2023-05-09T12:12:38.073Z,2.6813
2023-05-09T12:13:40.629Z,2.4893
2023-05-09T12:14:43.254Z,2.7748
2023-05-09T12:15:45.885Z,2.5429
2023-05-09T12:16:48.423Z,2.6261
2023-05-09T12:17:52.096Z,2.8246
2023-05-09T12:18:53.574Z,2.7668
2023-05-09T12:19:56.140Z,2.5740
2023-05-09T12:20:58.761Z,2.7004
2023-05-09T12:22:01.293Z,2.7864
2023-05-09T12:23:03.900Z,2.9048
2023-05-09T12:24:06.566Z,2.9196
2023-05-09T12:25:09.067Z,3.0733
2023-05-09T12:26:11.650Z,2.9859
2023-05-09T12:27:14.249Z,2.4218
2023-05-09T12:28:16.809Z,2.6475
2023-05-09T12:29:19.415Z,2.6972
2023-05-09T12:30:21.973Z,2.8626
2023-05-09T12:31:24.641Z,2.8682
2023-05-09T12:32:27.144Z,2.6198
2023-05-09T12:33:29.757Z,2.5404
2023-05-09T12:34:32.301Z,2.6689
2023-05-09T12:35:34.911Z,2.5803
2023-05-09T12:36:37.471Z,2.3520
2023-05-09T12:37:40.093Z,2.4588
2023-05-09T12:38:42.651Z,2.3642
2023-05-09T12:39:45.332Z,2.5284
2023-05-09T12:40:47.794Z,2.0856
2023-05-09T12:42:01.052Z,2.3038
2023-05-09T12:42:52.961Z,2.5130
2023-05-09T12:43:55.590Z,2.6547
2023-05-09T12:44:58.149Z,2.6484
2023-05-09T12:46:00.747Z,2.5053
2023-05-09T12:47:03.348Z,2.4702
2023-05-09T12:48:06.102Z,2.4838
2023-05-09T12:49:08.473Z,2.5682
2023-05-09T12:50:11.076Z,2.4646
2023-05-09T12:51:13.641Z,2.5548
2023-05-09T12:52:16.238Z,2.4962
2023-05-09T12:53:18.792Z,2.3849
2023-05-09T12:54:21.407Z,2.6582
2023-05-09T12:55:24.075Z,2.6735
2023-05-09T12:56:26.568Z,2.8919
2023-05-09T12:57:31.396Z,2.9168
2023-05-09T12:58:31.742Z,2.8234
2023-05-09T12:59:34.319Z,2.7535
2023-05-09T13:00:36.940Z,3.0040
2023-05-09T13:01:39.470Z,3.2548
2023-05-09T13:02:42.288Z,3.0683
2023-05-09T13:03:44.642Z,3.0190
2023-05-09T13:04:47.245Z,3.3148
2023-05-09T13:05:49.802Z,3.0101
2023-05-09T13:06:52.445Z,2.9672
2023-05-09T13:07:54.977Z,3.4159
2023-05-09T13:08:57.600Z,3.5762
2023-05-09T13:10:00.198Z,3.4761
2023-05-09T13:11:15.071Z,3.2464
2023-05-09T13:12:05.339Z,3.3210
2023-05-09T13:13:07.989Z,3.5032
2023-05-09T13:14:10.501Z,3.3302
2023-05-09T13:15:13.497Z,3.2170
2023-05-09T13:16:17.732Z,3.4013
2023-05-09T13:17:18.328Z,3.4194
2023-05-09T13:18:20.847Z,3.3548
2023-05-09T13:19:23.439Z,3.4916
2023-05-09T13:20:26.000Z,3.2672
2023-05-09T13:21:28.645Z,3.0585
2023-05-09T13:22:31.165Z,2.8786
2023-05-09T13:23:33.786Z,3.2488
2023-05-09T13:24:36.347Z,3.1697